createdAt,value
2023-09-02T00:00:16.448Z,1.13
2023-09-02T00:01:19.398Z,1.60
2023-09-02T00:02:21.341Z,1.65
2023-09-02T00:03:24.214Z,1.50
2023-09-02T00:04:26.989Z,1.30
2023-09-02T00:05:29.809Z,2.10
2023-09-02T00:06:33.102Z,1.35
2023-09-02T00:07:35.950Z,1.67
2023-09-02T00:08:38.609Z,1.67
2023-09-02T00:09:41.516Z,1.35
2023-09-02T00:10:43.404Z,1.65
2023-09-02T00:11:46.322Z,1.25
2023-09-02T00:12:48.535Z,1.35
2023-09-02T00:13:51.399Z,1.40
2023-09-02T00:14:53.224Z,1.70
2023-09-02T00:15:56.462Z,1.60
2023-09-02T00:16:58.387Z,1.48
2023-09-02T00:18:01.238Z,1.50
2023-09-02T00:19:04.759Z,1.42
2023-09-02T00:20:09.255Z,1.50
2023-09-02T00:21:12.498Z,1.20
2023-09-02T00:22:16.677Z,1.63
2023-09-02T00:23:18.760Z,1.92
2023-09-02T00:24:21.733Z,1.30
2023-09-02T00:25:26.052Z,1.40
2023-09-02T00:26:28.968Z,1.80
2023-09-02T00:27:30.819Z,1.30
2023-09-02T00:28:33.677Z,1.35
2023-09-02T00:29:35.599Z,1.52
2023-09-02T00:30:38.612Z,1.35
2023-09-02T00:31:40.695Z,1.30
2023-09-02T00:32:43.750Z,1.50
2023-09-02T00:33:45.626Z,1.42
2023-09-02T00:34:48.647Z,1.40
2023-09-02T00:35:50.602Z,1.85
2023-09-02T00:36:54.323Z,1.33
2023-09-02T00:37:58.198Z,1.70
2023-09-02T00:39:01.328Z,2.10
2023-09-02T00:40:03.778Z,1.40
2023-09-02T00:41:11.789Z,1.50
2023-09-02T00:42:14.529Z,1.40
2023-09-02T00:43:17.637Z,1.70
2023-09-02T00:44:19.936Z,1.80
2023-09-02T00:45:23.495Z,1.00
2023-09-02T00:46:25.651Z,1.50
2023-09-02T00:47:28.942Z,1.67
2023-09-02T00:48:30.805Z,1.60
2023-09-02T00:49:34.121Z,1.95
2023-09-02T00:50:36.290Z,1.60
2023-09-02T00:52:34.301Z,1.30
2023-09-02T00:54:32.626Z,1.60
2023-09-02T00:56:30.507Z,1.73
2023-09-02T00:58:28.261Z,1.48
2023-09-02T01:00:26.698Z,1.30
2023-09-02T01:02:24.589Z,1.30
2023-09-02T01:04:22.710Z,1.67
2023-09-02T01:06:20.780Z,1.55
2023-09-02T01:08:18.855Z,1.10
2023-09-02T01:10:16.875Z,1.50
2023-09-02T01:12:14.712Z,1.52
2023-09-02T01:14:12.887Z,1.52
2023-09-02T01:16:11.004Z,1.70
2023-09-02T01:18:09.102Z,1.27
2023-09-02T01:20:07.082Z,1.65
2023-09-02T01:22:05.192Z,1.50
2023-09-02T01:24:03.216Z,1.15
2023-09-02T01:26:01.320Z,1.70
2023-09-02T01:27:59.412Z,1.30
2023-09-02T01:29:57.148Z,1.48
2023-09-02T01:31:55.196Z,1.45
2023-09-02T01:33:53.197Z,1.77
2023-09-02T01:35:51.192Z,1.75
2023-09-02T01:37:49.172Z,1.60
2023-09-02T01:39:47.326Z,1.45
2023-09-02T01:41:45.260Z,1.70
2023-09-02T01:43:43.520Z,1.10
2023-09-02T01:45:41.627Z,1.30
2023-09-02T01:47:39.706Z,1.20
2023-09-02T01:49:37.687Z,1.63
2023-09-02T01:51:35.485Z,1.60
2023-09-02T01:53:33.247Z,1.30
2023-09-02T01:55:31.479Z,1.58
2023-09-02T01:57:29.639Z,2.03
2023-09-02T01:59:27.506Z,1.65
2023-09-02T02:01:25.552Z,1.63
2023-09-02T02:03:24.049Z,1.58
2023-09-02T02:05:22.487Z,1.77
2023-09-02T02:07:21.152Z,1.30
2023-09-02T02:09:18.948Z,1.73
2023-09-02T02:11:17.043Z,2.10
2023-09-02T02:13:14.941Z,1.65
2023-09-02T02:15:13.242Z,1.70
2023-09-02T02:17:11.288Z,2.33
2023-09-02T02:19:09.229Z,1.80
2023-09-02T02:21:07.234Z,1.42
2023-09-02T02:23:05.210Z,1.70
2023-09-02T02:25:03.284Z,1.73
2023-09-02T02:27:01.033Z,1.65
2023-09-02T02:28:59.102Z,1.50
2023-09-02T02:30:57.101Z,1.25
2023-09-02T02:32:54.939Z,1.40
2023-09-02T02:34:52.749Z,1.75
2023-09-02T02:36:50.604Z,1.95
2023-09-02T02:38:48.554Z,1.35
2023-09-02T02:40:46.524Z,1.55
2023-09-02T02:42:44.292Z,1.85
2023-09-02T02:44:42.270Z,1.75
2023-09-02T02:46:40.177Z,1.60
2023-09-02T02:48:38.302Z,1.70
2023-09-02T02:50:36.298Z,1.55
2023-09-02T02:52:34.135Z,1.92
2023-09-02T02:54:32.777Z,1.33
2023-09-02T02:56:30.642Z,1.05
2023-09-02T02:58:28.560Z,1.08
2023-09-02T03:00:26.410Z,1.25
2023-09-02T03:02:24.534Z,1.27
2023-09-02T03:04:22.937Z,1.10
2023-09-02T03:06:20.897Z,1.45
2023-09-02T03:08:18.609Z,1.90
2023-09-02T03:10:16.415Z,1.30
2023-09-02T03:12:14.426Z,1.30
2023-09-02T03:14:12.195Z,1.40
2023-09-02T03:16:10.447Z,1.75
2023-09-02T03:18:08.398Z,1.80
2023-09-02T03:20:06.443Z,1.17
2023-09-02T03:22:04.385Z,1.17
2023-09-02T03:24:03.017Z,1.50
2023-09-02T03:26:01.031Z,1.90
2023-09-02T03:27:58.697Z,1.63
2023-09-02T03:29:56.782Z,1.10
2023-09-02T03:31:54.853Z,1.45
2023-09-02T03:33:52.945Z,1.35
2023-09-02T03:35:50.818Z,1.42
2023-09-02T03:37:48.907Z,1.50
2023-09-02T03:39:47.054Z,1.30
2023-09-02T03:41:45.220Z,1.60
2023-09-02T03:43:43.255Z,1.60
2023-09-02T03:45:41.375Z,1.80
2023-09-02T03:47:39.638Z,1.80
2023-09-02T03:49:37.486Z,1.75
2023-09-02T03:51:35.606Z,2.15
2023-09-02T03:53:33.649Z,2.22
2023-09-02T03:55:31.470Z,2.30
2023-09-02T03:57:29.613Z,2.28
2023-09-02T03:59:27.716Z,1.88
2023-09-02T04:01:25.695Z,1.80
2023-09-02T04:03:23.675Z,2.13
2023-09-02T04:05:21.773Z,3.03
2023-09-02T04:07:19.707Z,2.20
2023-09-02T04:09:17.676Z,3.25
2023-09-02T04:11:15.643Z,2.85
2023-09-02T04:13:13.554Z,1.92
2023-09-02T04:15:11.512Z,2.50
2023-09-02T04:17:09.318Z,2.58
2023-09-02T04:19:07.253Z,2.40
2023-09-02T04:21:05.325Z,2.33
2023-09-02T04:23:03.625Z,2.20
2023-09-02T04:25:01.420Z,2.90
2023-09-02T04:26:59.276Z,2.92
2023-09-02T04:28:57.227Z,3.28
2023-09-02T04:30:55.202Z,2.13
2023-09-02T04:32:53.235Z,2.55
2023-09-02T04:34:51.464Z,2.75
2023-09-02T04:36:49.560Z,2.45
2023-09-02T04:38:47.329Z,2.30
2023-09-02T04:41:04.577Z,2.13
2023-09-02T04:43:02.368Z,2.75
2023-09-02T04:45:00.381Z,2.40
2023-09-02T04:46:58.529Z,1.98
2023-09-02T04:48:56.427Z,2.72
2023-09-02T04:50:54.312Z,2.95
2023-09-02T04:52:52.272Z,2.50
2023-09-02T04:54:50.381Z,2.35
2023-09-02T04:56:48.842Z,2.78
2023-09-02T04:58:46.786Z,2.30
2023-09-02T05:00:44.605Z,2.30
2023-09-02T05:02:42.784Z,2.20
2023-09-02T05:04:40.694Z,2.78
2023-09-02T05:06:38.598Z,2.58
2023-09-02T05:08:36.538Z,2.90
2023-09-02T05:10:34.396Z,2.70
2023-09-02T05:12:32.369Z,2.10
2023-09-02T05:14:30.157Z,2.38
2023-09-02T05:16:28.368Z,2.55
2023-09-02T05:18:26.187Z,2.20
2023-09-02T05:20:24.197Z,2.25
2023-09-02T05:22:22.226Z,2.45
2023-09-02T05:24:19.831Z,2.03
2023-09-02T05:26:17.802Z,2.70
2023-09-02T05:28:15.567Z,2.60
2023-09-02T05:30:13.681Z,1.95
2023-09-02T05:32:11.941Z,2.58
2023-09-02T05:34:09.739Z,2.42
2023-09-02T05:36:07.652Z,2.90
2023-09-02T05:38:05.801Z,2.70
2023-09-02T05:40:03.877Z,2.40
2023-09-02T05:42:01.980Z,2.30
2023-09-02T05:43:59.847Z,2.47
2023-09-02T05:45:57.734Z,3.10
2023-09-02T05:47:55.799Z,3.60
2023-09-02T05:49:53.860Z,3.20
2023-09-02T05:51:52.040Z,4.00
2023-09-02T05:53:50.027Z,3.50
2023-09-02T05:55:48.079Z,2.75
2023-09-02T05:57:45.912Z,3.15
2023-09-02T05:59:43.881Z,2.78
2023-09-02T06:01:42.120Z,2.58
2023-09-02T06:03:39.865Z,3.75
2023-09-02T06:05:37.843Z,3.20
2023-09-02T06:07:36.041Z,3.50
2023-09-02T06:09:33.926Z,3.65
2023-09-02T06:11:31.704Z,4.05
2023-09-02T06:13:29.646Z,3.80
2023-09-02T06:15:27.577Z,3.08
2023-09-02T06:17:25.606Z,4.45
2023-09-02T06:19:23.664Z,3.67
2023-09-02T06:21:21.484Z,4.00
2023-09-02T06:23:19.612Z,4.32
2023-09-02T06:25:17.455Z,4.60
2023-09-02T06:27:15.329Z,3.80
2023-09-02T06:29:13.194Z,3.55
2023-09-02T06:31:11.475Z,3.13
2023-09-02T06:33:09.527Z,4.10
2023-09-02T06:35:07.553Z,3.10
2023-09-02T06:37:05.411Z,4.22
2023-09-02T06:39:03.610Z,3.80
2023-09-02T06:41:01.556Z,3.40
2023-09-02T06:42:59.400Z,4.35
2023-09-02T06:44:57.354Z,3.42
2023-09-02T06:46:55.124Z,3.95
2023-09-02T06:48:53.240Z,3.50
2023-09-02T06:50:50.964Z,3.47
2023-09-02T06:52:48.854Z,4.47
2023-09-02T06:54:46.633Z,3.60
2023-09-02T06:56:44.618Z,3.67
2023-09-02T06:58:42.545Z,3.78
2023-09-02T07:00:40.444Z,3.85
2023-09-02T07:02:38.404Z,3.75
2023-09-02T07:04:36.086Z,4.10
2023-09-02T07:06:33.943Z,4.20
2023-09-02T07:08:31.689Z,4.03
2023-09-02T07:10:29.658Z,4.47
2023-09-02T07:12:27.495Z,3.90
2023-09-02T07:14:25.768Z,3.92
2023-09-02T07:16:23.483Z,4.30
2023-09-02T07:18:21.496Z,4.30
2023-09-02T07:20:19.297Z,4.45
2023-09-02T07:22:17.336Z,5.00
2023-09-02T07:24:15.224Z,4.85
2023-09-02T07:26:13.131Z,5.00
2023-09-02T07:28:10.967Z,4.05
2023-09-02T07:30:08.917Z,4.90
2023-09-02T07:32:06.779Z,4.85
2023-09-02T07:34:04.498Z,4.45
2023-09-02T07:36:02.521Z,4.70
2023-09-02T07:38:00.462Z,5.22
2023-09-02T07:39:58.370Z,5.85
2023-09-02T07:41:56.271Z,5.20
2023-09-02T07:43:53.884Z,4.40
2023-09-02T07:45:52.063Z,5.05
2023-09-02T07:47:50.018Z,5.43
2023-09-02T07:49:48.151Z,4.60
2023-09-02T07:51:46.215Z,4.32
2023-09-02T07:53:44.457Z,5.07
2023-09-02T07:55:42.028Z,4.53
2023-09-02T07:57:39.875Z,4.80
2023-09-02T07:59:37.684Z,4.20
2023-09-02T08:01:35.826Z,4.00
2023-09-02T08:03:33.992Z,5.07
2023-09-02T08:05:32.949Z,4.32
2023-09-02T08:07:31.133Z,5.55
2023-09-02T08:09:29.453Z,4.40
2023-09-02T08:11:27.734Z,4.93
2023-09-02T08:13:25.600Z,4.93
2023-09-02T08:15:23.690Z,4.95
2023-09-02T08:17:21.805Z,4.60
2023-09-02T08:19:20.014Z,4.22
2023-09-02T08:21:18.158Z,3.95
2023-09-02T08:23:16.417Z,4.00
2023-09-02T08:25:14.890Z,3.70
2023-09-02T08:27:12.806Z,4.80
2023-09-02T08:29:11.082Z,5.35
2023-09-02T08:31:09.088Z,4.70
2023-09-02T08:33:06.983Z,3.67
2023-09-02T08:35:05.081Z,3.95
2023-09-02T08:37:02.742Z,4.03
2023-09-02T08:39:01.336Z,4.53
2023-09-02T08:40:59.184Z,3.50
2023-09-02T08:42:56.994Z,3.80
2023-09-02T08:44:54.890Z,3.80
2023-09-02T08:46:52.920Z,3.42
2023-09-02T08:48:50.938Z,3.85
2023-09-02T08:50:48.743Z,3.10
2023-09-02T08:52:46.538Z,2.88
2023-09-02T08:54:44.506Z,2.83
2023-09-02T08:56:42.549Z,2.40
2023-09-02T08:58:40.372Z,2.85
2023-09-02T09:00:38.219Z,1.90
2023-09-02T09:02:36.172Z,2.80
2023-09-02T09:04:34.251Z,1.85
2023-09-02T09:06:32.793Z,2.85
2023-09-02T09:08:30.813Z,1.70
2023-09-02T09:10:28.634Z,1.60
2023-09-02T09:12:26.328Z,2.97
2023-09-02T09:14:24.178Z,1.90
2023-09-02T09:16:22.059Z,2.10
2023-09-02T09:18:20.019Z,1.80
2023-09-02T09:20:17.746Z,2.08
2023-09-02T09:22:15.745Z,1.90
2023-09-02T09:24:13.570Z,1.90
2023-09-02T09:26:11.284Z,1.58
2023-09-02T09:28:09.199Z,1.50
2023-09-02T09:30:07.429Z,1.30
2023-09-02T09:32:05.138Z,1.50
2023-09-02T09:34:03.002Z,1.35
2023-09-02T09:36:00.970Z,1.13
2023-09-02T09:37:59.037Z,1.30
2023-09-02T09:39:56.883Z,1.10
2023-09-02T09:41:54.447Z,1.67
2023-09-02T09:43:52.313Z,1.73
2023-09-02T09:45:50.107Z,1.25
2023-09-02T09:47:48.281Z,1.40
2023-09-02T09:49:46.245Z,1.30
2023-09-02T09:51:44.328Z,1.15
2023-09-02T09:53:42.136Z,1.50
2023-09-02T09:55:40.296Z,1.30
2023-09-02T09:57:38.546Z,1.30
2023-09-02T09:59:36.495Z,1.60
2023-09-02T10:01:34.589Z,1.50
2023-09-02T10:03:32.273Z,0.93
2023-09-02T10:05:30.274Z,1.52
2023-09-02T10:07:28.446Z,1.23
2023-09-02T10:09:26.168Z,1.30
2023-09-02T10:11:24.015Z,1.00
2023-09-02T10:13:22.002Z,1.50
2023-09-02T10:15:19.814Z,1.55
2023-09-02T10:17:17.621Z,2.00
2023-09-02T10:19:15.548Z,1.25
2023-09-02T10:21:13.400Z,0.98
2023-09-02T10:23:11.281Z,1.40
2023-09-02T10:25:09.062Z,2.10
2023-09-02T10:27:07.163Z,1.15
2023-09-02T10:29:04.952Z,1.33
2023-09-02T10:31:02.862Z,1.60
2023-09-02T10:33:00.791Z,1.00
2023-09-02T10:34:58.551Z,1.35
2023-09-02T10:36:56.664Z,1.40
2023-09-02T10:38:54.581Z,1.35
2023-09-02T10:40:52.543Z,1.60
2023-09-02T10:42:50.458Z,1.30
2023-09-02T10:44:48.443Z,1.40
2023-09-02T10:46:46.015Z,1.10
2023-09-02T10:48:44.078Z,1.10
2023-09-02T10:50:41.808Z,1.20
2023-09-02T10:52:39.643Z,1.40
2023-09-02T10:54:37.437Z,1.05
2023-09-02T10:56:35.634Z,1.20
2023-09-02T10:58:33.479Z,1.20
2023-09-02T11:00:31.395Z,1.50
2023-09-02T11:02:29.315Z,1.25
2023-09-02T11:04:27.291Z,1.73
2023-09-02T11:06:25.228Z,1.90
2023-09-02T11:08:22.969Z,1.10
2023-09-02T11:10:20.848Z,1.35
2023-09-02T11:12:18.953Z,1.30
2023-09-02T11:14:16.926Z,1.10
2023-09-02T11:16:15.005Z,1.25
2023-09-02T11:18:13.385Z,1.52
2023-09-02T11:20:11.625Z,0.98
2023-09-02T11:22:09.561Z,1.10
2023-09-02T11:24:07.523Z,1.10
2023-09-02T11:26:05.437Z,1.10
2023-09-02T11:28:03.760Z,1.40
2023-09-02T11:30:01.736Z,1.00
2023-09-02T11:31:59.631Z,1.45
2023-09-02T11:33:57.624Z,1.25
2023-09-02T11:35:55.440Z,1.20
2023-09-02T11:37:53.158Z,1.10
2023-09-02T11:39:51.158Z,1.00
2023-09-02T11:42:02.178Z,1.08
2023-09-02T11:44:04.910Z,1.30
2023-09-02T11:46:03.059Z,1.35
2023-09-02T11:48:01.142Z,1.10
2023-09-02T11:49:58.536Z,1.38
2023-09-02T11:51:56.614Z,0.95
2023-09-02T11:53:54.370Z,1.60
2023-09-02T11:55:52.481Z,1.27
2023-09-02T11:57:50.225Z,1.10
2023-09-02T11:59:48.034Z,1.10
2023-09-02T12:01:45.762Z,1.20
2023-09-02T12:03:43.914Z,1.00
2023-09-02T12:05:41.909Z,1.60
2023-09-02T12:07:39.776Z,1.10
2023-09-02T12:09:37.606Z,0.95
2023-09-02T12:11:35.526Z,1.10
2023-09-02T12:13:34.056Z,1.25
2023-09-02T12:15:32.276Z,1.10
2023-09-02T12:17:30.413Z,1.05
2023-09-02T12:19:28.676Z,1.40
2023-09-02T12:21:26.765Z,1.13
2023-09-02T12:23:24.745Z,1.40
2023-09-02T12:25:22.817Z,1.00
2023-09-02T12:27:20.898Z,1.02
2023-09-02T12:29:19.696Z,1.50
2023-09-02T12:31:17.982Z,1.23
2023-09-02T12:33:15.850Z,1.15
2023-09-02T12:35:13.914Z,1.40
2023-09-02T12:37:11.787Z,1.10
2023-09-02T12:39:09.742Z,1.58
2023-09-02T12:41:07.527Z,1.40
2023-09-02T12:43:05.785Z,1.15
2023-09-02T12:45:04.070Z,1.23
2023-09-02T12:47:01.911Z,1.20
2023-09-02T12:49:00.157Z,1.20
2023-09-02T12:50:58.033Z,1.02
2023-09-02T12:52:55.899Z,1.58
2023-09-02T12:54:53.619Z,1.38
2023-09-02T12:56:51.646Z,1.40
2023-09-02T12:58:49.402Z,1.05
2023-09-02T13:00:47.469Z,1.13
2023-09-02T13:02:45.484Z,1.05
2023-09-02T13:04:43.365Z,1.13
2023-09-02T13:06:41.368Z,1.00
2023-09-02T13:08:39.206Z,1.23
2023-09-02T13:10:37.161Z,1.35
2023-09-02T13:12:35.137Z,1.20
2023-09-02T13:14:32.914Z,0.90
2023-09-02T13:16:30.633Z,1.27
2023-09-02T13:18:28.662Z,1.38
2023-09-02T13:20:26.515Z,1.23
2023-09-02T13:22:24.464Z,0.98
2023-09-02T13:24:22.314Z,1.30
2023-09-02T13:26:20.959Z,0.85
2023-09-02T13:28:19.050Z,1.00
2023-09-02T13:30:17.275Z,1.20
2023-09-02T13:32:15.336Z,0.95
2023-09-02T13:34:13.134Z,1.10
2023-09-02T13:36:11.068Z,1.10
2023-09-02T13:38:08.971Z,1.13
2023-09-02T13:40:06.868Z,1.00
2023-09-02T13:42:04.765Z,1.08
2023-09-02T13:44:02.561Z,1.25
2023-09-02T13:46:00.745Z,0.90
2023-09-02T13:47:58.990Z,1.20
2023-09-02T13:49:57.082Z,0.93
2023-09-02T13:51:54.846Z,0.73
2023-09-02T13:53:52.818Z,1.00
2023-09-02T13:55:50.687Z,1.00
2023-09-02T13:57:48.503Z,1.05
2023-09-02T13:59:46.325Z,0.70
2023-09-02T14:01:44.308Z,1.10
2023-09-02T14:03:42.196Z,0.90
2023-09-02T14:05:40.371Z,0.95
2023-09-02T14:07:38.253Z,1.08
2023-09-02T14:09:36.240Z,1.38
2023-09-02T14:11:34.208Z,0.90
2023-09-02T14:13:32.118Z,0.80
2023-09-02T14:15:30.020Z,0.77
2023-09-02T14:17:27.818Z,1.15
2023-09-02T14:19:25.765Z,0.90
2023-09-02T14:21:24.209Z,1.00
2023-09-02T14:23:22.112Z,0.85
2023-09-02T14:25:20.237Z,1.10
2023-09-02T14:27:18.188Z,0.95
2023-09-02T14:29:16.399Z,0.80
2023-09-02T14:31:14.429Z,1.00
2023-09-02T14:33:12.438Z,1.40
2023-09-02T14:35:10.283Z,0.80
2023-09-02T14:37:08.202Z,0.88
2023-09-02T14:39:06.262Z,0.80
2023-09-02T14:41:04.214Z,1.00
2023-09-02T14:43:02.128Z,0.90
2023-09-02T14:45:00.113Z,0.93
2023-09-02T14:46:57.871Z,0.90
2023-09-02T14:48:55.875Z,1.35
2023-09-02T14:50:53.845Z,0.80
2023-09-02T14:52:51.821Z,0.73
2023-09-02T14:54:52.238Z,0.80
2023-09-02T14:56:50.182Z,0.90
2023-09-02T14:58:48.033Z,0.80
2023-09-02T15:00:46.240Z,1.05
2023-09-02T15:02:44.248Z,1.08
2023-09-02T15:04:42.465Z,1.00
2023-09-02T15:06:40.355Z,1.00
2023-09-02T15:08:38.334Z,0.70
2023-09-02T15:10:36.142Z,0.90
2023-09-02T15:12:35.480Z,0.80
2023-09-02T15:14:33.214Z,1.05
2023-09-02T15:16:31.054Z,0.90
2023-09-02T15:18:28.916Z,0.85
2023-09-02T15:20:26.665Z,0.73
2023-09-02T15:22:24.702Z,0.73
2023-09-02T15:24:22.651Z,0.80
2023-09-02T15:26:20.398Z,1.00
2023-09-02T15:28:18.139Z,1.08
2023-09-02T15:30:16.231Z,1.10
2023-09-02T15:32:14.052Z,0.77
2023-09-02T15:34:12.068Z,0.75
2023-09-02T15:36:10.032Z,0.80
2023-09-02T15:38:07.886Z,0.95
2023-09-02T15:40:05.804Z,1.08
2023-09-02T15:42:03.552Z,0.70
2023-09-02T15:44:01.851Z,0.90
2023-09-02T15:46:00.144Z,0.90
2023-09-02T15:47:58.220Z,0.70
2023-09-02T15:49:56.292Z,0.80
2023-09-02T15:51:54.042Z,0.88
2023-09-02T15:53:51.776Z,1.13
2023-09-02T15:55:49.492Z,0.85
2023-09-02T15:57:47.557Z,0.80
2023-09-02T15:59:45.483Z,0.70
2023-09-02T16:01:43.336Z,1.00
2023-09-02T16:03:41.544Z,0.80
2023-09-02T16:05:40.270Z,0.82
2023-09-02T16:07:38.435Z,0.90
2023-09-02T16:09:36.472Z,0.80
2023-09-02T16:11:35.660Z,0.60
2023-09-02T16:13:33.436Z,0.90
2023-09-02T16:15:31.420Z,1.02
2023-09-02T16:17:29.450Z,0.90
2023-09-02T16:19:27.493Z,0.80
2023-09-02T16:21:25.412Z,0.73
2023-09-02T16:23:23.199Z,0.65
2023-09-02T16:25:21.113Z,0.82
2023-09-02T16:27:18.940Z,0.80
2023-09-02T16:29:16.837Z,0.60
2023-09-02T16:31:14.505Z,0.88
2023-09-02T16:33:12.595Z,0.70
2023-09-02T16:35:10.472Z,1.45
2023-09-02T16:37:08.399Z,1.00
2023-09-02T16:39:06.189Z,0.68
2023-09-02T16:41:04.031Z,0.75
2023-09-02T16:43:02.171Z,1.00
2023-09-02T16:45:00.191Z,0.93
2023-09-02T16:46:58.380Z,0.70
2023-09-02T16:48:56.123Z,0.60
2023-09-02T16:50:54.200Z,0.60
2023-09-02T16:52:52.076Z,0.90
2023-09-02T16:54:49.952Z,0.77
2023-09-02T16:56:47.689Z,1.05
2023-09-02T16:58:45.688Z,0.70
2023-09-02T17:00:43.328Z,0.80
2023-09-02T17:02:41.421Z,0.73
2023-09-02T17:04:39.420Z,1.00
2023-09-02T17:06:37.389Z,0.80
2023-09-02T17:08:35.031Z,0.80
2023-09-02T17:10:32.684Z,0.80
2023-09-02T17:12:30.705Z,0.88
2023-09-02T17:14:28.699Z,0.88
2023-09-02T17:16:28.214Z,0.80
2023-09-02T17:18:26.595Z,0.73
2023-09-02T17:20:24.873Z,1.00
2023-09-02T17:22:22.614Z,1.27
2023-09-02T17:24:20.485Z,1.40
2023-09-02T17:26:19.694Z,0.95
2023-09-02T17:28:17.595Z,0.90
2023-09-02T17:30:16.171Z,1.10
2023-09-02T17:32:14.022Z,1.05
2023-09-02T17:34:11.954Z,1.20
2023-09-02T17:36:09.694Z,1.33
2023-09-02T17:38:07.560Z,1.35
2023-09-02T17:40:05.596Z,0.90
2023-09-02T17:42:03.522Z,0.90
2023-09-02T17:44:01.711Z,1.42
2023-09-02T17:45:59.723Z,1.50
2023-09-02T17:47:57.837Z,0.80
2023-09-02T17:49:55.931Z,1.23
2023-09-02T17:51:54.011Z,1.55
2023-09-02T17:53:51.630Z,1.10
2023-09-02T17:55:49.483Z,1.20
2023-09-02T17:57:47.434Z,0.95
2023-09-02T17:59:45.449Z,1.27
2023-09-02T18:01:43.527Z,1.10
2023-09-02T18:03:41.319Z,1.05
2023-09-02T18:05:39.176Z,1.20
2023-09-02T18:07:36.997Z,1.45
2023-09-02T18:09:35.016Z,1.10
2023-09-02T18:10:41.466Z,1.80
2023-09-02T18:12:39.603Z,1.10
2023-09-02T18:14:37.274Z,0.77
2023-09-02T18:16:35.200Z,1.25
2023-09-02T18:18:33.005Z,1.83
2023-09-02T18:20:31.153Z,1.92
2023-09-02T18:22:28.845Z,1.90
2023-09-02T18:24:26.930Z,1.70
2023-09-02T18:26:24.492Z,1.42
2023-09-02T18:28:22.401Z,1.40
2023-09-02T18:30:20.207Z,1.45
2023-09-02T18:32:18.125Z,1.33
2023-09-02T18:34:16.158Z,1.30
2023-09-02T18:36:13.968Z,1.35
2023-09-02T18:38:12.102Z,1.55
2023-09-02T18:40:10.107Z,1.55
2023-09-02T18:42:07.959Z,1.63
2023-09-02T18:44:05.548Z,1.83
2023-09-02T18:46:03.574Z,1.25
2023-09-02T18:48:01.418Z,1.90
2023-09-02T18:49:59.357Z,2.08
2023-09-02T18:51:57.222Z,1.35
2023-09-02T18:53:55.187Z,1.80
2023-09-02T18:55:53.243Z,2.05
2023-09-02T18:57:51.200Z,1.60
2023-09-02T18:59:49.164Z,1.45
2023-09-02T19:01:47.057Z,1.27
2023-09-02T19:03:45.096Z,1.40
2023-09-02T19:05:42.859Z,1.65
2023-09-02T19:07:40.882Z,1.20
2023-09-02T19:09:38.792Z,1.52
2023-09-02T19:11:36.905Z,1.25
2023-09-02T19:13:34.916Z,1.30
2023-09-02T19:15:32.917Z,1.27
2023-09-02T19:17:30.841Z,1.17
2023-09-02T19:19:28.973Z,1.38
2023-09-02T19:21:26.939Z,1.60
2023-09-02T19:23:24.718Z,1.13
2023-09-02T19:25:22.822Z,1.23
2023-09-02T19:27:20.759Z,1.45
2023-09-02T19:29:18.566Z,1.88
2023-09-02T19:31:16.334Z,1.25
2023-09-02T19:33:14.532Z,1.13
2023-09-02T19:35:12.505Z,1.10
2023-09-02T19:37:10.128Z,1.65
2023-09-02T19:39:08.141Z,1.60
2023-09-02T19:41:05.929Z,1.48
2023-09-02T19:43:03.959Z,1.83
2023-09-02T19:45:01.868Z,1.58
2023-09-02T19:46:59.817Z,1.00
2023-09-02T19:48:57.895Z,1.40
2023-09-02T19:50:55.905Z,1.40
2023-09-02T19:52:53.652Z,1.30
2023-09-02T19:54:51.697Z,1.05
2023-09-02T19:56:49.770Z,1.52
2023-09-02T19:58:57.428Z,1.15
2023-09-02T20:01:00.474Z,1.05
2023-09-02T20:02:58.379Z,1.40
2023-09-02T20:04:56.259Z,1.30
2023-09-02T20:06:54.208Z,1.15
2023-09-02T20:08:52.076Z,1.45
2023-09-02T20:10:49.941Z,1.80
2023-09-02T20:12:47.875Z,1.42
2023-09-02T20:14:45.847Z,1.52
2023-09-02T20:16:43.797Z,1.38
2023-09-02T20:18:41.733Z,1.98
2023-09-02T20:20:39.500Z,2.08
2023-09-02T20:22:37.450Z,1.30
2023-09-02T20:24:35.356Z,1.27
2023-09-02T20:26:33.459Z,1.85
2023-09-02T20:28:31.398Z,1.75
2023-09-02T20:30:29.645Z,2.00
2023-09-02T20:32:27.622Z,1.33
2023-09-02T20:34:25.576Z,2.08
2023-09-02T20:36:23.509Z,1.70
2023-09-02T20:38:21.302Z,1.77
2023-09-02T20:40:19.569Z,1.30
2023-09-02T20:42:17.094Z,1.70
2023-09-02T20:44:14.883Z,2.30
2023-09-02T20:46:12.743Z,1.80
2023-09-02T20:48:11.096Z,1.60
2023-09-02T20:50:08.835Z,2.30
2023-09-02T20:52:06.823Z,2.17
2023-09-02T20:54:04.604Z,1.98
2023-09-02T20:56:02.618Z,1.77
2023-09-02T20:58:00.756Z,1.58
2023-09-02T20:59:58.678Z,1.92
2023-09-02T21:01:56.666Z,2.00
2023-09-02T21:03:54.701Z,1.65
2023-09-02T21:05:52.680Z,1.70
2023-09-02T21:07:50.456Z,1.70
2023-09-02T21:09:48.574Z,1.25
2023-09-02T21:11:46.456Z,2.30
2023-09-02T21:13:44.536Z,1.50
2023-09-02T21:15:42.616Z,2.17
2023-09-02T21:17:40.418Z,1.42
2023-09-02T21:19:38.455Z,1.60
2023-09-02T21:21:36.178Z,1.15
2023-09-02T21:23:34.252Z,2.15
2023-09-02T21:25:32.162Z,1.35
2023-09-02T21:27:30.265Z,2.08
2023-09-02T21:29:28.207Z,2.10
2023-09-02T21:31:26.300Z,1.55
2023-09-02T21:33:24.058Z,1.80
2023-09-02T21:35:22.087Z,1.70
2023-09-02T21:37:20.365Z,1.92
2023-09-02T21:39:18.354Z,1.27
2023-09-02T21:41:16.194Z,1.27
2023-09-02T21:43:14.053Z,1.40
2023-09-02T21:45:12.020Z,1.52
2023-09-02T21:47:09.817Z,1.75
2023-09-02T21:49:08.002Z,1.30
2023-09-02T21:51:06.046Z,1.35
2023-09-02T21:53:04.143Z,1.63
2023-09-02T21:55:02.040Z,1.60
2023-09-02T21:57:00.034Z,1.80
2023-09-02T21:58:58.016Z,1.55
2023-09-02T22:00:55.949Z,1.40
2023-09-02T22:02:54.181Z,1.58
2023-09-02T22:04:52.123Z,1.55
2023-09-02T22:06:50.097Z,1.70
2023-09-02T22:08:48.249Z,1.40
2023-09-02T22:10:46.838Z,2.03
2023-09-02T22:12:44.597Z,1.60
2023-09-02T22:14:42.704Z,1.55
2023-09-02T22:16:40.889Z,1.20
2023-09-02T22:18:38.712Z,1.90
2023-09-02T22:20:36.914Z,1.70
2023-09-02T22:22:35.002Z,1.30
2023-09-02T22:24:33.106Z,1.30
2023-09-02T22:26:30.996Z,1.10
2023-09-02T22:28:28.732Z,1.17
2023-09-02T22:30:26.631Z,1.27
2023-09-02T22:32:24.345Z,1.40
2023-09-02T22:34:22.329Z,1.60
2023-09-02T22:36:20.353Z,1.45
2023-09-02T22:38:18.578Z,1.50
2023-09-02T22:40:16.300Z,1.40
2023-09-02T22:42:14.338Z,1.50
2023-09-02T22:44:12.016Z,2.17
2023-09-02T22:46:10.241Z,1.70
2023-09-02T22:48:08.701Z,2.33
2023-09-02T22:50:06.473Z,1.60
2023-09-02T22:52:04.430Z,1.70
2023-09-02T22:54:02.120Z,1.38
2023-09-02T22:56:00.347Z,1.27
2023-09-02T22:57:58.263Z,1.73
2023-09-02T22:59:56.354Z,1.40
2023-09-02T23:01:54.530Z,1.60
2023-09-02T23:03:52.613Z,1.95
2023-09-02T23:05:50.719Z,1.30
2023-09-02T23:07:48.776Z,1.35
2023-09-02T23:09:46.802Z,1.70
2023-09-02T23:11:44.698Z,1.30
2023-09-02T23:13:42.637Z,1.80
2023-09-02T23:15:40.565Z,1.98
2023-09-02T23:17:38.360Z,1.52
2023-09-02T23:19:36.342Z,1.35
2023-09-02T23:21:34.383Z,1.90
2023-09-02T23:23:31.968Z,1.80
2023-09-02T23:25:29.885Z,1.40
2023-09-02T23:27:27.610Z,2.17
2023-09-02T23:29:25.690Z,1.40
2023-09-02T23:31:23.638Z,1.38
2023-09-02T23:33:21.653Z,1.70
2023-09-02T23:35:19.744Z,2.33
2023-09-02T23:37:17.780Z,1.80
2023-09-02T23:39:15.815Z,2.03
2023-09-02T23:41:13.774Z,2.08
2023-09-02T23:43:11.737Z,1.70
2023-09-02T23:45:09.860Z,1.40
2023-09-02T23:47:09.355Z,1.80
2023-09-02T23:49:07.397Z,1.73
2023-09-02T23:51:05.216Z,1.50
2023-09-02T23:53:03.190Z,1.40
2023-09-02T23:55:01.045Z,1.67
2023-09-02T23:56:59.106Z,1.65
2023-09-02T23:58:57.158Z,1.83
